Time;durP1;ratioP1;P1;durP2;ratioP2;P2;SDS_P1;SDS_P2;PMS_P1;PMS_P2;Temp;Humidity;BMP_temperature;BMP_pressure;BME280_temperature;BME280_humidity;BME280_pressure;Samples;Min_cycle;Max_cycle;Signal;HPM_P1;HPM_P2
2021/11/12 00:04:33;;;;;;;53.23;34.53;;;6.20;99.90;;;;;;5032863;28;20730;-63
2021/11/12 00:12:31;;;;;;;58.87;36.70;;;6.20;99.90;;;;;;5032226;28;20217;-62
2021/11/12 00:14:59;;;;;;;58.20;36.60;;;6.20;99.90;;;;;;5048587;28;20296;-60
2021/11/12 00:17:31;;;;;;;59.17;35.13;;;6.20;99.90;;;;;;5043345;28;20643;-62
2021/11/12 00:19:59;;;;;;;58.63;35.70;;;6.20;99.90;;;;;;5034178;28;20216;-62
2021/11/12 00:22:26;;;;;;;55.50;35.23;;;6.20;99.90;;;;;;5030031;28;20641;-61
2021/11/12 00:24:55;;;;;;;61.27;36.37;;;6.20;99.90;;;;;;5043586;28;20213;-61
2021/11/12 00:27:22;;;;;;;58.03;35.53;;;6.20;99.90;;;;;;5031676;28;20219;-61
2021/11/12 00:29:58;;;;;;;67.60;37.27;;;6.20;99.90;;;;;;5030597;28;20213;-61
2021/11/12 00:32:34;;;;;;;62.40;35.27;;;6.20;99.90;;;;;;5029888;28;20237;-62
2021/11/12 00:35:11;;;;;;;62.60;35.97;;;6.20;99.90;;;;;;5038858;28;20201;-62
2021/11/12 00:37:51;;;;;;;61.40;35.53;;;6.20;99.90;;;;;;5044387;28;20213;-61
2021/11/12 00:40:20;;;;;;;67.07;36.60;;;6.20;99.90;;;;;;5030458;28;20248;-61
2021/11/12 00:43:05;;;;;;;62.20;36.40;;;6.30;99.90;;;;;;5036517;28;20592;-61
2021/11/12 00:45:41;;;;;;;65.00;38.27;;;6.20;99.90;;;;;;5036234;28;20207;-61
2021/11/12 00:48:14;;;;;;;70.27;38.50;;;6.20;99.90;;;;;;5034366;28;20198;-61
2021/11/12 00:50:58;;;;;;;62.73;37.13;;;6.20;99.90;;;;;;5044273;28;20251;-62
2021/11/12 00:53:50;;;;;;;72.67;38.23;;;6.20;99.90;;;;;;5031294;28;20207;-62
2021/11/12 00:56:17;;;;;;;74.57;38.30;;;6.20;99.90;;;;;;5030271;28;20305;-61
2021/11/12 00:58:44;;;;;;;70.10;38.77;;;6.10;99.90;;;;;;5039226;28;20258;-61
2021/11/12 01:01:12;;;;;;;68.83;39.37;;;6.10;99.90;;;;;;5042357;28;20202;-63
2021/11/12 01:03:39;;;;;;;70.10;37.00;;;6.10;99.90;;;;;;5034584;28;20210;-63
2021/11/12 01:06:06;;;;;;;71.30;39.60;;;6.00;99.90;;;;;;5039725;28;20244;-64
2021/11/12 01:08:33;;;;;;;69.60;36.57;;;6.00;99.90;;;;;;5036150;28;20682;-62
2021/11/12 01:11:00;;;;;;;74.57;38.93;;;6.00;99.90;;;;;;5043909;28;20708;-61
2021/11/12 01:13:27;;;;;;;73.53;38.53;;;6.00;99.90;;;;;;5044100;28;20238;-60
2021/11/12 01:15:55;;;;;;;74.63;40.83;;;6.00;99.90;;;;;;5049620;28;20214;-62
2021/11/12 01:18:23;;;;;;;69.47;39.00;;;6.00;99.90;;;;;;5035087;28;20278;-61
2021/11/12 01:20:50;;;;;;;75.67;40.50;;;6.00;99.90;;;;;;5052459;28;20210;-61
2021/11/12 01:23:18;;;;;;;73.30;39.00;;;6.00;99.90;;;;;;5039977;28;20206;-61
2021/11/12 01:25:45;;;;;;;69.97;37.90;;;6.00;99.90;;;;;;5049754;28;20211;-62
2021/11/12 01:28:12;;;;;;;76.40;38.77;;;6.00;99.90;;;;;;5046138;28;20617;-61
2021/11/12 01:30:39;;;;;;;75.97;39.27;;;6.10;99.90;;;;;;5036864;28;20202;-62
2021/11/12 01:33:06;;;;;;;73.43;39.87;;;6.10;99.90;;;;;;5053473;28;20202;-60
2021/11/12 01:35:36;;;;;;;79.03;38.67;;;6.10;99.90;;;;;;5037175;28;20210;-61
2021/11/12 01:38:03;;;;;;;77.80;40.27;;;6.10;99.90;;;;;;5033630;28;20222;-62
2021/11/12 01:40:30;;;;;;;72.43;39.77;;;6.10;99.90;;;;;;5035919;28;20206;-62
2021/11/12 01:43:04;;;;;;;76.80;40.30;;;6.10;99.90;;;;;;5052440;28;20197;-61
2021/11/12 01:45:45;;;;;;;70.73;37.03;;;6.10;99.90;;;;;;5046619;28;20890;-61
2021/11/12 01:48:20;;;;;;;75.33;39.50;;;6.10;99.90;;;;;;5049078;28;20655;-63
2021/11/12 01:50:54;;;;;;;70.43;37.03;;;6.10;99.90;;;;;;5050783;28;20251;-62
2021/11/12 01:53:27;;;;;;;73.30;39.00;;;6.10;99.90;;;;;;5048430;28;20222;-61
2021/11/12 01:56:11;;;;;;;74.30;39.33;;;6.10;99.90;;;;;;5033550;28;20199;-62
2021/11/12 01:58:52;;;;;;;70.87;38.47;;;6.10;99.90;;;;;;5048036;28;20577;-62
2021/11/12 02:01:19;;;;;;;76.07;39.57;;;6.10;99.90;;;;;;5038193;28;20699;-62
2021/11/12 02:03:46;;;;;;;73.80;37.40;;;6.10;99.90;;;;;;5032933;28;20210;-60
2021/11/12 02:06:16;;;;;;;76.77;39.23;;;6.10;99.90;;;;;;5032734;28;20214;-61
2021/11/12 02:08:43;;;;;;;77.30;38.67;;;6.20;99.90;;;;;;5038560;28;20201;-62
2021/11/12 02:11:11;;;;;;;71.63;38.83;;;6.10;99.90;;;;;;5040211;28;20234;-63
2021/11/12 02:13:39;;;;;;;76.40;40.80;;;6.20;99.90;;;;;;5046094;28;20233;-61
2021/11/12 02:16:06;;;;;;;74.47;39.07;;;6.20;99.90;;;;;;5039627;28;20206;-61
2021/11/12 02:18:37;;;;;;;79.20;39.97;;;6.20;99.90;;;;;;5033378;28;20210;-59
2021/11/12 02:21:10;;;;;;;74.00;39.03;;;6.30;99.90;;;;;;5032902;28;20210;-61
2021/11/12 02:23:40;;;;;;;79.50;39.67;;;6.30;99.90;;;;;;5047868;28;20201;-63
2021/11/12 02:26:10;;;;;;;68.77;37.30;;;6.30;99.90;;;;;;5046551;28;20206;-61
2021/11/12 02:28:42;;;;;;;74.17;37.27;;;6.30;99.90;;;;;;5038332;28;20672;-61
2021/11/12 02:31:09;;;;;;;70.53;38.53;;;6.40;99.90;;;;;;5044098;28;20211;-62
2021/11/12 02:33:37;;;;;;;65.17;37.10;;;6.30;99.90;;;;;;5046732;28;20293;-61
2021/11/12 02:36:08;;;;;;;76.90;40.50;;;6.30;99.90;;;;;;5038740;28;20274;-61
2021/11/12 02:38:36;;;;;;;77.77;39.13;;;6.30;99.90;;;;;;5032634;28;20210;-61
2021/11/12 02:41:05;;;;;;;64.53;37.17;;;6.30;99.90;;;;;;5038070;28;20287;-62
2021/11/12 02:43:32;;;;;;;73.20;37.37;;;6.30;99.90;;;;;;5038343;28;20577;-62
2021/11/12 02:46:01;;;;;;;61.67;36.93;;;6.30;99.90;;;;;;5037594;28;20199;-61
2021/11/12 02:48:29;;;;;;;61.67;37.10;;;6.30;99.90;;;;;;5038603;28;20614;-61
2021/11/12 02:50:56;;;;;;;67.53;38.00;;;6.30;99.90;;;;;;5050361;28;20292;-61
2021/11/12 02:53:24;;;;;;;70.13;36.97;;;6.30;99.90;;;;;;5037521;28;20300;-61
2021/11/12 02:55:51;;;;;;;61.87;35.30;;;6.30;99.90;;;;;;5047741;28;20222;-61
2021/11/12 02:58:20;;;;;;;62.43;34.63;;;6.30;99.90;;;;;;5037974;28;20201;-63
2021/11/12 03:00:47;;;;;;;66.60;36.37;;;6.30;99.90;;;;;;5041804;28;20333;-62
2021/11/12 03:03:15;;;;;;;65.07;34.77;;;6.30;99.90;;;;;;5031903;28;20234;-62
2021/11/12 03:05:42;;;;;;;62.73;36.37;;;6.30;99.90;;;;;;5034375;28;20273;-63
2021/11/12 03:08:09;;;;;;;72.57;37.63;;;6.30;99.90;;;;;;5045915;28;20209;-61
2021/11/12 03:10:38;;;;;;;70.57;36.53;;;6.30;99.90;;;;;;5039093;28;20257;-63
2021/11/12 03:13:05;;;;;;;68.83;37.70;;;6.30;99.90;;;;;;5038166;28;20290;-62
2021/11/12 03:15:32;;;;;;;63.83;35.53;;;6.20;99.90;;;;;;5036291;28;20222;-62
2021/11/12 03:17:59;;;;;;;69.13;36.57;;;6.20;99.90;;;;;;5031870;28;20578;-63
2021/11/12 03:20:29;;;;;;;72.07;37.97;;;6.30;99.90;;;;;;5037541;28;20583;-61
2021/11/12 03:22:59;;;;;;;67.83;38.07;;;6.30;99.90;;;;;;5041502;28;20210;-62
2021/11/12 03:25:32;;;;;;;73.10;37.30;;;6.30;99.90;;;;;;5034902;28;20255;-61
2021/11/12 03:28:20;;;;;;;71.97;36.73;;;6.30;99.90;;;;;;5031212;28;20214;-61
2021/11/12 04:01:40;;;;;;;62.47;33.67;;;6.40;99.90;;;;;;5035690;28;20286;-63
2021/11/12 04:04:18;;;;;;;66.37;36.07;;;6.40;99.90;;;;;;5031490;28;20220;-61
2021/11/12 04:06:51;;;;;;;67.87;35.77;;;6.50;99.90;;;;;;5041684;28;20199;-62
2021/11/12 04:17:46;;;;;;;70.90;34.97;;;6.50;99.90;;;;;;5050870;28;20259;-62
2021/11/12 05:45:20;;;;;;;74.17;35.00;;;6.90;99.90;;;;;;5035367;28;20193;-61
2021/11/12 05:50:53;;;;;;;73.90;35.77;;;6.80;99.90;;;;;;5051061;28;20788;-61
2021/11/12 05:56:07;;;;;;;78.73;37.80;;;6.80;99.90;;;;;;5053119;28;20728;-62
2021/11/12 05:58:34;;;;;;;82.57;35.97;;;6.80;99.90;;;;;;5046603;28;20203;-61
2021/11/12 06:01:00;;;;;;;78.53;36.07;;;6.80;99.90;;;;;;5034658;28;20569;-61
2021/11/12 06:03:27;;;;;;;72.97;34.50;;;6.80;99.90;;;;;;5034515;28;20298;-61
2021/11/12 06:05:54;;;;;;;81.93;36.97;;;6.80;99.90;;;;;;5035271;28;20211;-63
2021/11/12 06:08:21;;;;;;;83.57;38.40;;;6.80;99.90;;;;;;5036283;28;20214;-62
2021/11/12 06:10:48;;;;;;;75.17;35.83;;;6.80;99.90;;;;;;5043637;28;20246;-63
2021/11/12 06:13:17;;;;;;;72.17;35.77;;;6.90;99.90;;;;;;5048270;28;20256;-63
2021/11/12 06:15:44;;;;;;;77.77;35.70;;;6.90;99.90;;;;;;5042684;28;20534;-62
2021/11/12 06:18:11;;;;;;;83.17;37.00;;;6.90;99.90;;;;;;5032228;28;20544;-61
2021/11/12 06:20:38;;;;;;;83.93;36.13;;;6.90;99.90;;;;;;5037829;28;20217;-63
2021/11/12 06:23:05;;;;;;;73.97;34.30;;;6.90;99.90;;;;;;5040856;28;20210;-63
2021/11/12 06:25:32;;;;;;;81.63;37.60;;;6.90;99.90;;;;;;5035910;28;20288;-62
2021/11/12 06:27:59;;;;;;;80.43;36.50;;;6.90;99.90;;;;;;5045857;28;20220;-61
2021/11/12 06:30:29;;;;;;;73.27;34.43;;;6.90;99.90;;;;;;5050501;28;20647;-61
2021/11/12 06:32:55;;;;;;;79.37;34.00;;;7.00;99.90;;;;;;5034989;28;20230;-61
2021/11/12 06:35:22;;;;;;;85.23;37.43;;;6.90;99.90;;;;;;5040869;28;20202;-62
2021/11/12 06:37:49;;;;;;;80.50;36.63;;;6.90;99.90;;;;;;5037028;28;20431;-59
2021/11/12 06:40:19;;;;;;;80.50;35.03;;;6.90;99.90;;;;;;5032670;28;20210;-62
2021/11/12 06:43:01;;;;;;;77.60;36.07;;;6.90;99.90;;;;;;5045918;28;20210;-62
2021/11/12 06:50:59;;;;;;;82.77;35.43;;;7.10;99.90;;;;;;5049285;28;20280;-62
2021/11/12 06:53:26;;;;;;;81.80;37.23;;;7.10;99.90;;;;;;5032054;28;20233;-63
2021/11/12 06:55:56;;;;;;;82.03;37.50;;;7.10;99.90;;;;;;5042837;28;20691;-64
2021/11/12 06:58:23;;;;;;;85.70;38.10;;;7.10;99.90;;;;;;5037454;28;20206;-62
2021/11/12 07:00:51;;;;;;;76.80;35.50;;;7.10;99.90;;;;;;5031575;28;20206;-63
2021/11/12 07:03:18;;;;;;;77.37;35.37;;;7.10;99.90;;;;;;5031599;28;20200;-65
2021/11/12 07:05:45;;;;;;;87.37;37.03;;;7.10;99.90;;;;;;5036451;28;20733;-64
2021/11/12 07:08:12;;;;;;;78.43;35.83;;;7.20;99.90;;;;;;5034564;28;20206;-64
2021/11/12 07:10:39;;;;;;;80.03;35.20;;;7.20;99.90;;;;;;5043949;28;20695;-64
2021/11/12 07:13:06;;;;;;;84.50;35.73;;;7.20;99.90;;;;;;5031463;28;20234;-65
2021/11/12 07:15:33;;;;;;;77.90;35.60;;;7.20;99.90;;;;;;5042426;28;20707;-65
2021/11/12 07:18:02;;;;;;;79.20;37.47;;;7.20;99.90;;;;;;5042683;28;20209;-65
2021/11/12 07:20:29;;;;;;;78.13;35.47;;;7.20;99.90;;;;;;5038767;28;20210;-64
2021/11/12 07:22:56;;;;;;;84.50;36.87;;;7.20;99.90;;;;;;5043107;28;20203;-65
2021/11/12 07:25:23;;;;;;;77.00;35.53;;;7.20;99.90;;;;;;5048248;28;20612;-65
2021/11/12 07:27:51;;;;;;;77.30;36.93;;;7.20;99.90;;;;;;5045075;28;20216;-65
2021/11/12 07:30:20;;;;;;;79.80;36.27;;;7.20;99.90;;;;;;5043650;28;20217;-64
2021/11/12 07:32:48;;;;;;;80.70;33.93;;;7.30;99.90;;;;;;5035939;28;20226;-65
2021/11/12 07:35:21;;;;;;;77.57;36.40;;;7.30;99.90;;;;;;5044426;28;20738;-66
2021/11/12 07:37:48;;;;;;;77.43;35.33;;;7.30;99.90;;;;;;5051649;28;20646;-65
2021/11/12 07:40:23;;;;;;;80.07;37.20;;;7.30;99.90;;;;;;5038664;28;20276;-66
2021/11/12 07:43:15;;;;;;;76.23;33.90;;;7.30;99.90;;;;;;5030048;28;20621;-65
2021/11/12 07:45:52;;;;;;;77.03;35.77;;;7.40;99.90;;;;;;5030545;28;20203;-66
2021/11/12 07:48:19;;;;;;;79.37;35.40;;;7.40;99.90;;;;;;5041054;28;20620;-66
2021/11/12 07:50:47;;;;;;;80.40;35.80;;;7.50;99.90;;;;;;5048838;28;20612;-65
2021/11/12 07:53:14;;;;;;;77.20;34.30;;;7.50;99.90;;;;;;5047312;28;20243;-65
2021/11/12 07:55:41;;;;;;;78.17;35.63;;;7.40;99.90;;;;;;5034145;28;20210;-66
2021/11/12 07:58:08;;;;;;;80.07;38.93;;;7.40;99.90;;;;;;5044219;28;20210;-64
2021/11/12 08:00:35;;;;;;;87.20;40.67;;;7.50;99.90;;;;;;5035917;28;20224;-64
2021/11/12 08:03:03;;;;;;;88.07;37.10;;;7.50;99.90;;;;;;5036262;28;20203;-64
2021/11/12 08:05:32;;;;;;;81.93;36.10;;;7.50;99.90;;;;;;5032185;28;20233;-66
2021/11/12 08:08:05;;;;;;;92.70;39.70;;;7.60;99.90;;;;;;5032168;28;20210;-64
2021/11/12 08:10:36;;;;;;;86.70;36.73;;;7.60;99.90;;;;;;5031796;28;20238;-64
2021/11/12 08:13:09;;;;;;;77.10;36.93;;;7.60;99.90;;;;;;5042784;28;20218;-65
2021/11/12 08:15:47;;;;;;;81.73;36.77;;;7.70;99.90;;;;;;5049187;28;20202;-63
2021/11/12 08:18:32;;;;;;;77.83;36.67;;;7.70;99.90;;;;;;5039097;28;20292;-63
2021/11/12 08:21:01;;;;;;;82.00;35.97;;;7.70;99.90;;;;;;5029460;28;20210;-64
2021/11/12 08:23:41;;;;;;;80.80;36.43;;;7.80;99.90;;;;;;5038247;28;20272;-65
2021/11/12 08:26:11;;;;;;;88.13;35.87;;;7.90;99.90;;;;;;5047807;28;20244;-63
2021/11/12 08:28:55;;;;;;;73.93;33.83;;;8.00;99.90;;;;;;5038083;28;20230;-64
2021/11/12 08:31:29;;;;;;;70.43;34.90;;;8.00;99.90;;;;;;5042576;28;20211;-66
2021/11/12 08:33:58;;;;;;;80.67;35.30;;;8.10;99.90;;;;;;5036702;28;20225;-65
2021/11/12 08:36:42;;;;;;;73.50;34.33;;;8.10;99.90;;;;;;5030523;28;20213;-64
2021/11/12 08:39:17;;;;;;;74.80;34.60;;;8.10;99.90;;;;;;5038790;28;20207;-65
2021/11/12 08:41:46;;;;;;;72.73;34.27;;;8.10;99.90;;;;;;5030191;28;20198;-65
2021/11/12 08:44:21;;;;;;;78.27;35.30;;;8.20;99.90;;;;;;5030404;28;20253;-66
2021/11/12 08:46:52;;;;;;;78.97;35.07;;;8.20;99.90;;;;;;5041544;28;20201;-66
2021/11/12 08:49:23;;;;;;;71.23;34.37;;;8.30;99.90;;;;;;5043402;28;20206;-66
2021/11/12 08:51:51;;;;;;;66.90;32.60;;;8.40;99.90;;;;;;5032369;28;20363;-65
2021/11/12 08:54:24;;;;;;;68.23;32.73;;;8.50;99.90;;;;;;5033794;28;20227;-65
2021/11/12 08:56:51;;;;;;;69.07;34.03;;;8.60;99.90;;;;;;5029730;28;20580;-63
2021/11/12 08:59:18;;;;;;;65.77;33.80;;;8.70;99.90;;;;;;5036014;28;20210;-64
2021/11/12 09:01:45;;;;;;;67.80;32.33;;;8.90;99.90;;;;;;5031387;28;20214;-65
2021/11/12 09:04:13;;;;;;;69.17;30.47;;;8.90;99.90;;;;;;5041954;28;20206;-65
2021/11/12 09:06:40;;;;;;;68.00;32.37;;;8.90;99.90;;;;;;5040611;28;20256;-65
2021/11/12 09:09:08;;;;;;;67.27;32.17;;;9.00;99.90;;;;;;5035456;28;20203;-65
2021/11/12 09:11:38;;;;;;;64.83;31.20;;;9.00;99.90;;;;;;5037907;28;20308;-65
2021/11/12 09:14:07;;;;;;;62.93;31.70;;;9.00;99.90;;;;;;5049972;28;20593;-66
2021/11/12 09:16:35;;;;;;;75.67;33.53;;;9.00;99.90;;;;;;5043517;28;20239;-65
2021/11/12 09:19:03;;;;;;;66.67;32.07;;;9.10;99.90;;;;;;5051448;28;20209;-65
2021/11/12 09:21:30;;;;;;;69.03;33.93;;;9.20;99.90;;;;;;5051758;28;20269;-66
2021/11/12 09:23:58;;;;;;;65.00;31.50;;;9.20;99.90;;;;;;5053029;28;20204;-64
2021/11/12 09:26:26;;;;;;;59.77;30.27;;;9.30;99.90;;;;;;5047070;28;20585;-65
2021/11/12 09:28:54;;;;;;;62.77;31.00;;;9.30;99.90;;;;;;5050277;28;20210;-64
2021/11/12 09:31:22;;;;;;;65.03;31.13;;;9.40;99.90;;;;;;5040164;28;20221;-65
2021/11/12 09:33:49;;;;;;;59.03;30.63;;;9.40;99.90;;;;;;5047720;28;20229;-66
2021/11/12 09:36:16;;;;;;;62.07;32.23;;;9.50;99.90;;;;;;5039459;28;20290;-66
2021/11/12 09:38:44;;;;;;;57.53;31.50;;;9.50;99.90;;;;;;5042140;28;20210;-67
2021/11/12 09:41:12;;;;;;;59.70;31.03;;;9.50;99.90;;;;;;5044067;28;20283;-64
2021/11/12 09:43:40;;;;;;;56.03;29.93;;;9.60;99.90;;;;;;5044462;28;20198;-64
2021/11/12 09:46:10;;;;;;;55.67;28.57;;;9.60;99.90;;;;;;5048724;28;20620;-65
2021/11/12 09:48:37;;;;;;;57.57;30.17;;;9.60;99.90;;;;;;5045226;28;20213;-64
2021/11/12 09:51:05;;;;;;;57.57;28.67;;;9.60;99.90;;;;;;5051447;28;20206;-65
2021/11/12 09:53:32;;;;;;;58.23;28.90;;;9.70;99.90;;;;;;5042027;28;20234;-63
2021/11/12 09:55:59;;;;;;;48.03;26.57;;;9.70;99.90;;;;;;5034880;28;20336;-64
2021/11/12 09:58:25;;;;;;;57.90;31.03;;;9.60;99.90;;;;;;5043777;28;20214;-64
2021/11/12 10:00:56;;;;;;;56.33;30.03;;;9.60;99.90;;;;;;5050320;28;20233;-65
2021/11/12 10:03:32;;;;;;;54.67;27.83;;;9.70;99.90;;;;;;5046897;28;20205;-64
2021/11/12 10:06:00;;;;;;;49.60;27.70;;;9.70;99.90;;;;;;5054131;28;20558;-62
2021/11/12 10:08:30;;;;;;;57.80;29.13;;;9.80;99.90;;;;;;5036077;28;20206;-61
2021/11/12 10:11:01;;;;;;;57.57;28.13;;;9.80;99.90;;;;;;5047190;28;20232;-62
2021/11/12 10:13:33;;;;;;;50.60;28.27;;;9.80;99.90;;;;;;5053919;28;20295;-64
2021/11/12 10:16:24;;;;;;;54.57;29.30;;;9.90;99.90;;;;;;5038425;28;20202;-63
2021/11/12 10:19:05;;;;;;;54.00;27.90;;;9.80;99.90;;;;;;5039729;28;20265;-63
2021/11/12 10:21:34;;;;;;;59.03;29.67;;;9.80;99.90;;;;;;5041455;28;20264;-64
2021/11/12 10:24:02;;;;;;;51.40;26.43;;;9.80;99.90;;;;;;5044516;28;20682;-62
2021/11/12 10:26:31;;;;;;;53.57;28.40;;;9.70;99.90;;;;;;5043913;28;20636;-62
2021/11/12 10:29:04;;;;;;;52.77;28.03;;;9.70;99.90;;;;;;5042221;28;20285;-63
2021/11/12 10:31:39;;;;;;;53.70;28.70;;;9.70;99.90;;;;;;5038291;28;20270;-63
2021/11/12 10:34:13;;;;;;;53.30;29.70;;;9.60;99.90;;;;;;5038663;28;20331;-63
2021/11/12 10:36:48;;;;;;;52.07;29.57;;;9.70;99.90;;;;;;5039160;28;20248;-66
2021/11/12 10:39:15;;;;;;;60.43;30.60;;;9.60;99.90;;;;;;5040001;28;20723;-63
2021/11/12 10:41:42;;;;;;;59.47;28.97;;;9.60;99.90;;;;;;5038878;28;20207;-63
2021/11/12 10:44:12;;;;;;;57.73;31.30;;;9.60;99.90;;;;;;5041540;28;20205;-63
2021/11/12 10:46:42;;;;;;;54.27;29.17;;;9.50;99.90;;;;;;5045355;28;20232;-63
2021/11/12 10:49:29;;;;;;;57.50;30.70;;;9.60;99.90;;;;;;5049083;28;20206;-63
2021/11/12 10:51:57;;;;;;;56.73;30.37;;;9.50;99.90;;;;;;5030953;28;20210;-64
2021/11/12 10:54:41;;;;;;;58.27;31.00;;;9.50;99.90;;;;;;5033216;28;20230;-68
2021/11/12 10:57:10;;;;;;;66.40;33.87;;;9.50;99.90;;;;;;5043921;28;20227;-66
2021/11/12 10:59:53;;;;;;;62.10;31.77;;;9.50;99.90;;;;;;5046406;28;20300;-65
2021/11/12 11:02:28;;;;;;;57.40;28.73;;;9.50;99.90;;;;;;5044282;28;20206;-66
2021/11/12 11:04:59;;;;;;;61.07;31.47;;;9.50;99.90;;;;;;5049392;28;20747;-68
2021/11/12 11:07:28;;;;;;;57.17;31.83;;;9.50;99.90;;;;;;5046747;28;20198;-67
2021/11/12 11:09:57;;;;;;;60.67;30.50;;;9.50;99.90;;;;;;5040901;28;20238;-66
2021/11/12 11:12:50;;;;;;;56.80;29.10;;;9.40;99.90;;;;;;5040652;28;20241;-67
2021/11/12 11:15:27;;;;;;;49.43;26.27;;;9.40;99.90;;;;;;5022479;28;20476;-66
2021/11/12 11:18:19;;;;;;;50.23;27.97;;;9.40;99.90;;;;;;5041051;28;20205;-65
2021/11/12 11:20:51;;;;;;;54.30;27.50;;;9.40;99.90;;;;;;5048029;28;20309;-66
2021/11/12 11:23:19;;;;;;;58.03;29.67;;;9.40;99.90;;;;;;5050592;28;20713;-65
2021/11/12 11:26:04;;;;;;;57.50;29.87;;;9.40;99.90;;;;;;5046748;28;20663;-67
2021/11/12 11:28:34;;;;;;;56.43;30.23;;;9.50;99.90;;;;;;5042676;28;20673;-65
2021/11/12 11:31:02;;;;;;;54.93;28.37;;;9.50;99.90;;;;;;5039649;28;20304;-66
2021/11/12 11:33:30;;;;;;;51.10;27.73;;;9.60;99.90;;;;;;5048256;28;20210;-66
2021/11/12 11:36:01;;;;;;;53.30;28.97;;;9.60;99.90;;;;;;5039226;28;20210;-67
2021/11/12 11:38:30;;;;;;;53.37;29.03;;;9.70;99.90;;;;;;5043811;28;20677;-66
2021/11/12 11:40:59;;;;;;;54.10;28.23;;;9.60;99.90;;;;;;5042632;28;20210;-66
2021/11/12 11:43:26;;;;;;;62.17;30.73;;;9.60;99.90;;;;;;5039079;28;20210;-65
2021/11/12 11:45:56;;;;;;;55.30;29.60;;;9.60;99.90;;;;;;5041172;28;20689;-65
2021/11/12 11:48:24;;;;;;;61.93;30.90;;;9.60;99.90;;;;;;5039248;28;20225;-66
2021/11/12 11:50:52;;;;;;;60.97;30.77;;;9.60;99.90;;;;;;5035112;28;20214;-66
2021/11/12 11:53:32;;;;;;;61.23;31.23;;;9.60;99.90;;;;;;5037466;28;20221;-66
2021/11/12 11:56:19;;;;;;;61.77;31.13;;;9.50;99.90;;;;;;5034895;28;20776;-65
2021/11/12 11:58:46;;;;;;;62.27;30.37;;;9.50;99.90;;;;;;5036930;28;20209;-65
2021/11/12 12:01:39;;;;;;;51.17;28.30;;;9.60;99.90;;;;;;5036069;28;20234;-65
2021/11/12 12:04:40;;;;;;;58.47;29.27;;;9.60;99.90;;;;;;5036884;28;20202;-66
2021/11/12 12:07:19;;;;;;;55.13;29.47;;;9.60;99.90;;;;;;5036905;28;20209;-66
2021/11/12 12:09:50;;;;;;;54.63;28.57;;;9.70;99.90;;;;;;5042511;28;20249;-65
2021/11/12 12:12:42;;;;;;;58.10;29.93;;;9.70;99.90;;;;;;5049583;28;20229;-66
2021/11/12 12:15:29;;;;;;;59.17;30.50;;;9.70;99.90;;;;;;5043203;28;20222;-66
2021/11/12 12:18:11;;;;;;;60.70;30.47;;;9.80;99.90;;;;;;5035742;28;20648;-67
2021/11/12 12:20:53;;;;;;;61.73;32.07;;;9.80;99.90;;;;;;5046408;28;20325;-66
2021/11/12 13:22:09;;;;;;;52.67;28.00;;;9.70;99.90;;;;;;5043821;28;20690;-66
2021/11/12 13:24:37;;;;;;;54.33;30.07;;;9.60;99.90;;;;;;5037083;28;20205;-67
2021/11/12 13:27:06;;;;;;;54.43;28.27;;;9.60;99.90;;;;;;5048642;28;20604;-66
2021/11/12 13:29:36;;;;;;;51.20;28.70;;;9.60;99.90;;;;;;5038323;28;20203;-66
2021/11/12 13:32:06;;;;;;;51.60;29.47;;;9.60;99.90;;;;;;5047644;28;20285;-65
2021/11/12 13:34:41;;;;;;;49.07;27.77;;;9.60;99.90;;;;;;5043641;28;20218;-66
2021/11/12 13:37:19;;;;;;;48.10;27.33;;;9.60;99.90;;;;;;5048396;28;20298;-66
2021/11/12 13:40:02;;;;;;;50.13;28.50;;;9.50;99.90;;;;;;5046527;28;20687;-65
2021/11/12 13:42:30;;;;;;;55.80;29.53;;;9.50;99.90;;;;;;5050129;28;20908;-66
2021/11/12 13:44:57;;;;;;;53.90;29.63;;;9.40;99.90;;;;;;5042955;28;20344;-66
2021/11/12 13:47:25;;;;;;;48.77;28.77;;;9.40;99.90;;;;;;5052139;28;20206;-67
2021/11/12 13:49:53;;;;;;;48.73;27.50;;;9.40;99.90;;;;;;5046674;28;20229;-64
2021/11/12 13:52:27;;;;;;;51.07;27.53;;;9.40;99.90;;;;;;5044207;28;20720;-66
2021/11/12 13:55:02;;;;;;;51.63;27.73;;;9.40;99.90;;;;;;5039016;28;20218;-67
2021/11/12 13:57:30;;;;;;;45.33;26.83;;;9.40;99.90;;;;;;5033198;28;20675;-67
2021/11/12 13:59:59;;;;;;;49.30;28.40;;;9.40;99.90;;;;;;5036245;28;20229;-67
2021/11/12 14:02:28;;;;;;;44.80;27.13;;;9.40;99.90;;;;;;5045069;28;20285;-68
2021/11/12 14:05:08;;;;;;;47.83;27.00;;;9.40;99.90;;;;;;5036255;28;20231;-66
2021/11/12 14:07:35;;;;;;;43.53;26.17;;;9.30;99.90;;;;;;5033025;28;20287;-66
2021/11/12 14:10:03;;;;;;;47.90;26.87;;;9.30;99.90;;;;;;5042143;28;20230;-63
2021/11/12 14:12:31;;;;;;;48.60;26.03;;;9.30;99.90;;;;;;5044011;28;20668;-64
2021/11/12 14:15:12;;;;;;;48.37;27.43;;;9.30;99.90;;;;;;5047551;28;20458;-65
2021/11/12 14:17:51;;;;;;;45.83;26.47;;;9.30;99.90;;;;;;5044981;28;20237;-66
2021/11/12 14:20:26;;;;;;;49.83;26.80;;;9.30;99.90;;;;;;5035579;28;20213;-65
2021/11/12 14:23:03;;;;;;;51.57;27.77;;;9.30;99.90;;;;;;5042780;28;20381;-65
2021/11/12 14:25:41;;;;;;;45.20;27.17;;;9.40;99.90;;;;;;5039348;28;20201;-65
2021/11/12 14:28:17;;;;;;;48.67;27.93;;;9.30;99.90;;;;;;5037846;28;20209;-69
2021/11/12 14:33:50;;;;;;;56.13;28.40;;;9.40;99.90;;;;;;5046768;28;20198;-65
2021/11/12 14:36:31;;;;;;;50.73;28.70;;;9.40;99.90;;;;;;5051000;28;20300;-67
2021/11/12 14:39:15;;;;;;;50.43;27.70;;;9.40;99.90;;;;;;5045147;28;20799;-66
2021/11/12 14:45:14;;;;;;;53.37;28.93;;;9.40;99.90;;;;;;5024516;28;20596;-66
2021/11/12 14:48:02;;;;;;;54.33;28.80;;;9.30;99.90;;;;;;5039966;28;20206;-68
2021/11/12 14:50:43;;;;;;;50.80;27.83;;;9.30;99.90;;;;;;5044494;28;20210;-68
2021/11/12 14:53:18;;;;;;;54.40;28.87;;;9.30;99.90;;;;;;5051694;28;20194;-67
2021/11/12 14:55:49;;;;;;;50.00;27.40;;;9.40;99.90;;;;;;5046233;28;20276;-69
2021/11/12 14:58:18;;;;;;;51.83;28.40;;;9.40;99.90;;;;;;5045480;28;20716;-67
2021/11/12 15:00:46;;;;;;;57.17;28.57;;;9.40;99.90;;;;;;5050623;28;20209;-68
2021/11/12 15:03:13;;;;;;;55.77;30.40;;;9.40;99.90;;;;;;5040274;28;20543;-67
2021/11/12 15:05:42;;;;;;;56.17;30.57;;;9.40;99.90;;;;;;5036564;28;20202;-68
2021/11/12 15:08:13;;;;;;;54.27;27.93;;;9.40;99.90;;;;;;5042136;28;20210;-67
2021/11/12 15:10:41;;;;;;;49.43;27.97;;;9.30;99.90;;;;;;5040215;28;20288;-67
2021/11/12 15:13:08;;;;;;;49.03;29.70;;;9.30;99.90;;;;;;5042764;28;20314;-66
2021/11/12 15:15:35;;;;;;;48.10;28.23;;;9.30;99.90;;;;;;5046218;28;20224;-67
2021/11/12 15:18:05;;;;;;;50.27;26.70;;;9.30;99.90;;;;;;5051056;28;20208;-66
2021/11/12 15:20:33;;;;;;;46.37;27.77;;;9.30;99.90;;;;;;5044194;28;20209;-67
2021/11/12 15:25:58;;;;;;;49.97;27.37;;;9.30;99.90;;;;;;5050108;28;20219;-67
2021/11/12 15:28:33;;;;;;;50.57;28.23;;;9.20;99.90;;;;;;5050293;28;20481;-67
2021/11/12 15:31:05;;;;;;;50.37;29.10;;;9.30;99.90;;;;;;5039468;28;20210;-66
2021/11/12 15:33:32;;;;;;;47.90;27.70;;;9.30;99.90;;;;;;5038942;28;20289;-67
2021/11/12 15:36:03;;;;;;;48.97;26.03;;;9.30;99.90;;;;;;5048386;28;20274;-67
2021/11/12 15:38:35;;;;;;;43.67;26.43;;;9.30;99.90;;;;;;5041895;28;20197;-66
2021/11/12 15:41:05;;;;;;;48.57;27.47;;;9.30;99.90;;;;;;5036770;28;20253;-68
2021/11/12 15:43:40;;;;;;;51.60;27.30;;;9.30;99.90;;;;;;5046583;28;20627;-66
2021/11/12 15:46:12;;;;;;;53.17;29.43;;;9.30;99.90;;;;;;5050559;28;20599;-66
2021/11/12 15:48:41;;;;;;;49.60;26.90;;;9.30;99.90;;;;;;5050514;28;20208;-65
2021/11/12 15:51:26;;;;;;;48.53;27.70;;;9.30;99.90;;;;;;5036728;28;20238;-66
2021/11/12 15:54:11;;;;;;;51.17;29.43;;;9.30;99.90;;;;;;5036545;28;20264;-66
2021/11/12 15:59:29;;;;;;;49.77;27.70;;;9.40;99.90;;;;;;5041518;28;20559;-67
2021/11/12 16:05:14;;;;;;;50.10;29.83;;;9.40;99.90;;;;;;5040178;28;20195;-67
2021/11/12 16:07:53;;;;;;;52.97;28.20;;;9.50;99.90;;;;;;5034836;28;20574;-66
2021/11/12 16:10:47;;;;;;;49.47;28.07;;;9.40;99.90;;;;;;5034894;28;20268;-68
2021/11/12 16:13:18;;;;;;;51.70;30.03;;;9.50;99.90;;;;;;5034480;28;20213;-66
2021/11/12 16:18:43;;;;;;;53.67;30.03;;;9.50;99.90;;;;;;5029630;28;20289;-66
2021/11/12 16:21:27;;;;;;;56.00;30.30;;;9.50;99.90;;;;;;5050203;28;20256;-67
2021/11/12 16:26:44;;;;;;;50.60;28.13;;;9.50;99.90;;;;;;5039708;28;20205;-68
2021/11/12 16:32:04;;;;;;;47.17;28.10;;;9.50;99.90;;;;;;5037349;28;20237;-67
2021/11/12 16:34:35;;;;;;;51.37;28.33;;;9.50;99.90;;;;;;5039233;28;20202;-68
2021/11/12 16:37:04;;;;;;;47.17;28.17;;;9.50;99.90;;;;;;5048919;28;20244;-67
2021/11/12 16:39:34;;;;;;;51.13;28.10;;;9.50;99.90;;;;;;5049783;28;20221;-67
2021/11/12 16:42:14;;;;;;;53.87;28.83;;;9.50;99.90;;;;;;5049592;28;20268;-68
2021/11/12 16:44:46;;;;;;;52.03;28.70;;;9.50;99.90;;;;;;5040267;28;20210;-67